Cajazeiras, Brazil
Current Conditions -  °F | °C
As of 8:00 PM on Tuesday 25 Nov 2014 (Local Time) from SBJU Reporting Station
Few Clouds Few Clouds  
Wind Chill: 86°   Ceiling: Unl
Heat Index: 90°   Visibility: 6mi
Dew Point: 70°   Wind: 9mph
Humidity: 58%   Direction: 200°SSW
Pressure: 29.91"   Gusts: NA
Location:  6.89°S, 38.56°W
Report Text: SBJU 252300Z 20008KT 9999 FEW022 30/21 Q1013
Loading
Personal Weather Stations






























Interactive Weather Map New forecast layout! Learn more

10-Day Weather Forecast

Advertisements
Track Severe Weather on mobile